TAM1103 SBGO-SBCF
Flight info
| Callsign | TAM1103 |
|---|---|
| Flight time | 0h 59m |
| Altitude | 38000 |
| Route | ESBOD UZ31 ILPAV DCT VULAD |
| Aircraft | A20N/M-SDE2E3FGHIRWXY/LB1 |
Departure
| Time | 2026-05-05 23:25 |
|---|---|
| Airport | Santa Genoveva International Airport (SBGO) |
Arrival
| Time | 2026-05-06 00:24 |
|---|---|
| Airport | Tancredo Neves International Airport (SBCF) |
| Time | Latitude | Longitude | Altitude | Speed | Heading |
|---|---|---|---|---|---|
| 2026-05-05 22:06 | -16.63005 | -49.21509 | 2462 ft | 0 kts | 57° |
| 2026-05-05 23:02 | -16.63010 | -49.21517 | 2465 ft | 2 kts | 56° |
| 2026-05-05 23:03 | -16.63019 | -49.21531 | 2468 ft | 2 kts | 55° |
| 2026-05-05 23:03 | -16.63029 | -49.21545 | 2463 ft | 2 kts | 52° |
| 2026-05-05 23:03 | -16.63040 | -49.21558 | 2462 ft | 2 kts | 36° |
| 2026-05-05 23:03 | -16.63055 | -49.21562 | 2463 ft | 2 kts | 329° |
| 2026-05-05 23:04 | -16.63061 | -49.21558 | 2462 ft | 0 kts | 322° |
| 2026-05-05 23:05 | -16.63060 | -49.21559 | 2462 ft | 1 kts | 322° |
| 2026-05-05 23:05 | -16.63051 | -49.21565 | 2464 ft | 3 kts | 323° |
| 2026-05-05 23:05 | -16.63026 | -49.21585 | 2462 ft | 7 kts | 323° |
| 2026-05-05 23:06 | -16.63022 | -49.21588 | 2462 ft | 0 kts | 323° |
| 2026-05-05 23:09 | -16.63022 | -49.21589 | 2462 ft | 1 kts | 323° |
| 2026-05-05 23:09 | -16.63010 | -49.21595 | 2465 ft | 2 kts | 332° |
| 2026-05-05 23:10 | -16.62992 | -49.21605 | 2465 ft | 6 kts | 334° |
| 2026-05-05 23:10 | -16.62924 | -49.21633 | 2462 ft | 10 kts | 319° |
| 2026-05-05 23:10 | -16.62926 | -49.21713 | 2458 ft | 18 kts | 251° |
| 2026-05-05 23:10 | -16.62954 | -49.21848 | 2451 ft | 19 kts | 256° |
| 2026-05-05 23:11 | -16.62988 | -49.22011 | 2452 ft | 19 kts | 258° |
| 2026-05-05 23:11 | -16.62972 | -49.22162 | 2454 ft | 18 kts | 300° |
| 2026-05-05 23:11 | -16.62904 | -49.22286 | 2451 ft | 23 kts | 301° |
| 2026-05-05 23:11 | -16.62817 | -49.22443 | 2456 ft | 27 kts | 299° |
| 2026-05-05 23:12 | -16.62712 | -49.22631 | 2458 ft | 32 kts | 300° |
| 2026-05-05 23:12 | -16.62606 | -49.22819 | 2461 ft | 15 kts | 303° |
| 2026-05-05 23:12 | -16.62583 | -49.22915 | 2455 ft | 8 kts | 230° |
| 2026-05-05 23:12 | -16.62603 | -49.22933 | 2455 ft | 0 kts | 215° |
| 2026-05-05 23:20 | -16.62614 | -49.22940 | 2455 ft | 7 kts | 214° |
| 2026-05-05 23:20 | -16.62691 | -49.22976 | 2458 ft | 16 kts | 182° |
| 2026-05-05 23:20 | -16.62735 | -49.22925 | 2461 ft | 8 kts | 117° |
| 2026-05-05 23:20 | -16.62747 | -49.22905 | 2457 ft | 0 kts | 122° |
| 2026-05-05 23:24 | -16.62748 | -49.22903 | 2463 ft | 2 kts | 122° |
| 2026-05-05 23:25 | -16.62831 | -49.22764 | 2461 ft | 58 kts | 121° |
| 2026-05-05 23:25 | -16.63148 | -49.22190 | 2453 ft | 122 kts | 120° |
| 2026-05-05 23:25 | -16.63640 | -49.21275 | 2560 ft | 158 kts | 118° |
| 2026-05-05 23:25 | -16.64182 | -49.20283 | 3173 ft | 154 kts | 120° |
| 2026-05-05 23:26 | -16.64710 | -49.19369 | 3867 ft | 141 kts | 118° |
| 2026-05-05 23:26 | -16.65219 | -49.18499 | 4362 ft | 146 kts | 118° |
| 2026-05-05 23:26 | -16.65769 | -49.17532 | 4695 ft | 164 kts | 117° |
| 2026-05-05 23:26 | -16.66379 | -49.16442 | 4997 ft | 183 kts | 118° |
| 2026-05-05 23:27 | -16.67309 | -49.15433 | 5238 ft | 211 kts | 150° |
| 2026-05-05 23:27 | -16.68839 | -49.15158 | 5573 ft | 243 kts | 184° |
| 2026-05-05 23:27 | -16.70500 | -49.15832 | 6016 ft | 272 kts | 214° |
| 2026-05-05 23:27 | -16.71941 | -49.17208 | 6708 ft | 286 kts | 223° |
| 2026-05-05 23:28 | -16.73444 | -49.18590 | 7441 ft | 289 kts | 216° |
| 2026-05-05 23:28 | -16.75134 | -49.19738 | 7796 ft | 291 kts | 208° |
| 2026-05-05 23:28 | -16.76954 | -49.20661 | 7932 ft | 291 kts | 202° |
| 2026-05-05 23:28 | -16.78832 | -49.21447 | 7984 ft | 291 kts | 199° |
| 2026-05-05 23:29 | -16.80734 | -49.22176 | 7987 ft | 291 kts | 199° |
| 2026-05-05 23:29 | -16.82638 | -49.22889 | 7981 ft | 290 kts | 199° |
| 2026-05-05 23:29 | -16.84540 | -49.23603 | 7976 ft | 290 kts | 199° |
| 2026-05-05 23:29 | -16.86457 | -49.24149 | 7981 ft | 290 kts | 184° |
| 2026-05-05 23:30 | -16.88458 | -49.23965 | 8328 ft | 291 kts | 162° |
| 2026-05-05 23:30 | -16.90361 | -49.23249 | 9309 ft | 290 kts | 158° |
| 2026-05-05 23:30 | -16.92269 | -49.22531 | 10315 ft | 294 kts | 159° |
| 2026-05-05 23:30 | -16.94259 | -49.21790 | 10836 ft | 315 kts | 159° |
| 2026-05-05 23:31 | -16.96403 | -49.20989 | 11156 ft | 339 kts | 159° |
| 2026-05-05 23:31 | -16.98667 | -49.20142 | 11763 ft | 349 kts | 159° |
| 2026-05-05 23:31 | -17.00974 | -49.19277 | 12605 ft | 353 kts | 159° |
| 2026-05-05 23:31 | -17.03300 | -49.18403 | 13401 ft | 358 kts | 159° |
| 2026-05-05 23:32 | -17.05662 | -49.17515 | 14164 ft | 363 kts | 160° |
| 2026-05-05 23:32 | -17.08049 | -49.16616 | 14872 ft | 366 kts | 160° |
| 2026-05-05 23:32 | -17.10457 | -49.15709 | 15584 ft | 369 kts | 160° |
| 2026-05-05 23:32 | -17.12892 | -49.14792 | 16264 ft | 373 kts | 160° |
| 2026-05-05 23:33 | -17.15344 | -49.13868 | 16922 ft | 377 kts | 160° |
| 2026-05-05 23:33 | -17.17835 | -49.12930 | 17579 ft | 381 kts | 161° |
| 2026-05-05 23:33 | -17.20342 | -49.11986 | 18237 ft | 385 kts | 161° |
| 2026-05-05 23:33 | -17.22878 | -49.11058 | 18835 ft | 388 kts | 165° |
| 2026-05-05 23:34 | -17.25487 | -49.10320 | 19426 ft | 390 kts | 163° |
| 2026-05-05 23:34 | -17.27952 | -49.09128 | 20018 ft | 394 kts | 148° |
| 2026-05-05 23:34 | -17.30026 | -49.07229 | 20602 ft | 399 kts | 131° |
| 2026-05-05 23:34 | -17.31524 | -49.04811 | 21170 ft | 405 kts | 117° |
| 2026-05-05 23:35 | -17.32643 | -49.02080 | 21740 ft | 409 kts | 113° |
| 2026-05-05 23:35 | -17.33663 | -48.99287 | 22296 ft | 413 kts | 112° |
| 2026-05-05 23:35 | -17.34719 | -48.96476 | 22861 ft | 416 kts | 114° |
| 2026-05-05 23:35 | -17.35827 | -48.93669 | 23409 ft | 419 kts | 115° |
| 2026-05-05 23:36 | -17.36979 | -48.90852 | 23917 ft | 423 kts | 115° |
| 2026-05-05 23:36 | -17.38161 | -48.88020 | 24358 ft | 426 kts | 116° |
| 2026-05-05 23:36 | -17.39362 | -48.85160 | 24808 ft | 430 kts | 116° |
| 2026-05-05 23:36 | -17.40573 | -48.82282 | 25239 ft | 434 kts | 116° |
| 2026-05-05 23:37 | -17.41792 | -48.79381 | 25666 ft | 437 kts | 116° |
| 2026-05-05 23:37 | -17.43019 | -48.76455 | 26077 ft | 441 kts | 116° |
| 2026-05-05 23:37 | -17.44260 | -48.73494 | 26501 ft | 445 kts | 116° |
| 2026-05-05 23:37 | -17.45507 | -48.70516 | 26902 ft | 448 kts | 116° |
| 2026-05-05 23:38 | -17.46761 | -48.67520 | 27301 ft | 452 kts | 116° |
| 2026-05-05 23:38 | -17.48028 | -48.64489 | 27700 ft | 455 kts | 117° |
| 2026-05-05 23:38 | -17.49304 | -48.61438 | 28084 ft | 459 kts | 117° |
| 2026-05-05 23:38 | -17.50588 | -48.58364 | 28469 ft | 462 kts | 117° |
| 2026-05-05 23:39 | -17.51880 | -48.55269 | 28839 ft | 466 kts | 117° |
| 2026-05-05 23:39 | -17.53184 | -48.52144 | 29202 ft | 469 kts | 117° |
| 2026-05-05 23:39 | -17.54476 | -48.49048 | 29560 ft | 472 kts | 117° |
| 2026-05-05 23:39 | -17.55796 | -48.45880 | 29925 ft | 475 kts | 117° |
| 2026-05-05 23:40 | -17.57123 | -48.42697 | 30273 ft | 479 kts | 117° |
| 2026-05-05 23:40 | -17.58462 | -48.39483 | 30612 ft | 481 kts | 117° |
| 2026-05-05 23:40 | -17.59798 | -48.36271 | 31016 ft | 482 kts | 118° |
| 2026-05-05 23:40 | -17.61140 | -48.33045 | 31407 ft | 484 kts | 118° |
| 2026-05-05 23:41 | -17.62484 | -48.29811 | 31865 ft | 482 kts | 118° |
| 2026-05-05 23:41 | -17.63818 | -48.26597 | 32376 ft | 480 kts | 118° |
| 2026-05-05 23:41 | -17.65150 | -48.23388 | 32871 ft | 478 kts | 119° |
| 2026-05-05 23:41 | -17.66473 | -48.20197 | 33355 ft | 476 kts | 119° |
| 2026-05-05 23:42 | -17.67792 | -48.17018 | 33832 ft | 474 kts | 120° |
| 2026-05-05 23:42 | -17.69106 | -48.13851 | 34268 ft | 473 kts | 120° |
| 2026-05-05 23:42 | -17.70415 | -48.10693 | 34627 ft | 471 kts | 120° |
| 2026-05-05 23:42 | -17.71719 | -48.07546 | 34966 ft | 471 kts | 120° |
| 2026-05-05 23:43 | -17.73023 | -48.04399 | 35278 ft | 471 kts | 120° |
| 2026-05-05 23:43 | -17.74328 | -48.01248 | 35592 ft | 471 kts | 120° |
| 2026-05-05 23:43 | -17.75630 | -47.98098 | 35925 ft | 470 kts | 121° |
| 2026-05-05 23:43 | -17.76929 | -47.94956 | 36252 ft | 470 kts | 121° |
| 2026-05-05 23:44 | -17.78229 | -47.91809 | 36556 ft | 469 kts | 121° |
| 2026-05-05 23:44 | -17.79527 | -47.88667 | 36850 ft | 469 kts | 121° |
| 2026-05-05 23:44 | -17.80822 | -47.85530 | 37143 ft | 469 kts | 121° |
| 2026-05-05 23:44 | -17.82116 | -47.82392 | 37423 ft | 468 kts | 121° |
| 2026-05-05 23:45 | -17.83410 | -47.79255 | 37705 ft | 468 kts | 121° |
| 2026-05-05 23:45 | -17.84703 | -47.76118 | 37977 ft | 468 kts | 121° |
| 2026-05-05 23:45 | -17.85995 | -47.72981 | 38141 ft | 468 kts | 121° |
| 2026-05-05 23:45 | -17.87295 | -47.69828 | 38168 ft | 474 kts | 121° |
| 2026-05-05 23:46 | -17.89929 | -47.63430 | 38170 ft | 478 kts | 121° |
| 2026-05-05 23:46 | -17.92538 | -47.57069 | 38169 ft | 477 kts | 121° |
| 2026-05-05 23:47 | -17.95164 | -47.50669 | 38167 ft | 477 kts | 121° |
| 2026-05-05 23:47 | -17.97789 | -47.44267 | 38175 ft | 477 kts | 121° |
| 2026-05-05 23:48 | -18.00411 | -47.37869 | 38176 ft | 477 kts | 121° |
| 2026-05-05 23:48 | -18.03028 | -47.31474 | 38179 ft | 477 kts | 121° |
| 2026-05-05 23:49 | -18.05647 | -47.25064 | 38174 ft | 477 kts | 121° |
| 2026-05-05 23:49 | -18.08264 | -47.18656 | 38174 ft | 477 kts | 121° |
| 2026-05-05 23:50 | -18.10874 | -47.12254 | 38176 ft | 477 kts | 121° |
| 2026-05-05 23:50 | -18.13485 | -47.05841 | 38176 ft | 476 kts | 121° |
| 2026-05-05 23:51 | -18.16089 | -46.99442 | 38176 ft | 476 kts | 121° |
| 2026-05-05 23:51 | -18.18656 | -46.93103 | 38177 ft | 461 kts | 122° |
| 2026-05-05 23:52 | -18.21147 | -46.86963 | 38175 ft | 457 kts | 122° |
| 2026-05-05 23:52 | -18.23641 | -46.80835 | 38181 ft | 459 kts | 122° |
| 2026-05-05 23:53 | -18.26140 | -46.74665 | 38187 ft | 458 kts | 122° |
| 2026-05-05 23:53 | -18.28635 | -46.68499 | 38189 ft | 458 kts | 122° |
| 2026-05-05 23:54 | -18.30231 | -46.64551 | 38189 ft | 458 kts | 122° |
| 2026-05-05 23:54 | -18.31411 | -46.61630 | 38180 ft | 458 kts | 122° |
| 2026-05-05 23:55 | -18.33900 | -46.55461 | 38184 ft | 458 kts | 122° |
| 2026-05-05 23:55 | -18.36385 | -46.49298 | 38190 ft | 457 kts | 122° |
| 2026-05-05 23:56 | -18.38871 | -46.43127 | 38193 ft | 458 kts | 122° |
| 2026-05-05 23:56 | -18.41356 | -46.36952 | 38191 ft | 458 kts | 122° |
| 2026-05-05 23:57 | -18.43840 | -46.30770 | 38196 ft | 458 kts | 123° |
| 2026-05-05 23:57 | -18.46317 | -46.24600 | 38197 ft | 457 kts | 123° |
| 2026-05-05 23:58 | -18.48794 | -46.18421 | 38200 ft | 457 kts | 123° |
| 2026-05-05 23:58 | -18.51267 | -46.12251 | 38198 ft | 457 kts | 122° |
| 2026-05-05 23:59 | -18.53738 | -46.06077 | 38200 ft | 457 kts | 122° |
| 2026-05-05 23:59 | -18.56205 | -45.99907 | 38201 ft | 457 kts | 122° |
| 2026-05-06 00:00 | -18.58668 | -45.93738 | 38195 ft | 457 kts | 122° |
| 2026-05-06 00:00 | -18.61117 | -45.87602 | 38197 ft | 457 kts | 122° |
| 2026-05-06 00:01 | -18.63575 | -45.81431 | 38188 ft | 457 kts | 122° |
| 2026-05-06 00:01 | -18.66033 | -45.75253 | 38182 ft | 457 kts | 122° |
| 2026-05-06 00:02 | -18.68486 | -45.69080 | 38180 ft | 456 kts | 122° |
| 2026-05-06 00:02 | -18.70938 | -45.62906 | 38178 ft | 456 kts | 122° |
| 2026-05-06 00:03 | -18.73388 | -45.56732 | 38170 ft | 457 kts | 122° |
| 2026-05-06 00:03 | -18.75840 | -45.50543 | 38165 ft | 457 kts | 122° |
| 2026-05-06 00:04 | -18.78290 | -45.44352 | 38171 ft | 457 kts | 122° |
| 2026-05-06 00:04 | -18.80744 | -45.38146 | 38170 ft | 458 kts | 121° |
| 2026-05-06 00:05 | -18.83188 | -45.31958 | 37272 ft | 459 kts | 121° |
| 2026-05-06 00:05 | -18.84427 | -45.28832 | 36339 ft | 465 kts | 120° |
| 2026-05-06 00:05 | -18.85687 | -45.25659 | 35387 ft | 471 kts | 119° |
| 2026-05-06 00:06 | -18.86954 | -45.22456 | 34447 ft | 476 kts | 118° |
| 2026-05-06 00:06 | -18.88224 | -45.19244 | 33332 ft | 483 kts | 118° |
| 2026-05-06 00:06 | -18.89538 | -45.15912 | 32196 ft | 487 kts | 117° |
| 2026-05-06 00:06 | -18.90838 | -45.12607 | 31165 ft | 488 kts | 116° |
| 2026-05-06 00:07 | -18.92138 | -45.09302 | 30106 ft | 488 kts | 116° |
| 2026-05-06 00:07 | -18.93422 | -45.06034 | 28920 ft | 488 kts | 116° |
| 2026-05-06 00:07 | -18.94724 | -45.02717 | 27759 ft | 489 kts | 115° |
| 2026-05-06 00:07 | -18.96027 | -44.99395 | 26666 ft | 490 kts | 115° |
| 2026-05-06 00:08 | -18.97330 | -44.96075 | 25599 ft | 489 kts | 115° |
| 2026-05-06 00:08 | -18.98627 | -44.92763 | 24539 ft | 484 kts | 115° |
| 2026-05-06 00:08 | -18.99898 | -44.89514 | 23529 ft | 472 kts | 115° |
| 2026-05-06 00:08 | -19.01137 | -44.86344 | 22384 ft | 462 kts | 115° |
| 2026-05-06 00:09 | -19.01945 | -44.84280 | 21761 ft | 454 kts | 115° |
| 2026-05-06 00:09 | -19.03117 | -44.81277 | 21253 ft | 432 kts | 115° |
| 2026-05-06 00:09 | -19.04260 | -44.78348 | 20391 ft | 421 kts | 115° |
| 2026-05-06 00:09 | -19.05352 | -44.75556 | 19460 ft | 414 kts | 114° |
| 2026-05-06 00:10 | -19.06443 | -44.72766 | 18570 ft | 407 kts | 114° |
| 2026-05-06 00:10 | -19.07525 | -44.70050 | 17847 ft | 393 kts | 117° |
| 2026-05-06 00:10 | -19.08830 | -44.67604 | 17487 ft | 371 kts | 125° |
| 2026-05-06 00:10 | -19.10331 | -44.65449 | 16986 ft | 358 kts | 128° |
| 2026-05-06 00:11 | -19.11821 | -44.63386 | 16454 ft | 349 kts | 128° |
| 2026-05-06 00:11 | -19.13289 | -44.61347 | 15944 ft | 347 kts | 128° |
| 2026-05-06 00:11 | -19.14748 | -44.59319 | 15433 ft | 345 kts | 128° |
| 2026-05-06 00:11 | -19.16199 | -44.57299 | 14882 ft | 346 kts | 128° |
| 2026-05-06 00:12 | -19.17651 | -44.55277 | 14395 ft | 343 kts | 127° |
| 2026-05-06 00:12 | -19.19092 | -44.53271 | 13847 ft | 343 kts | 127° |
| 2026-05-06 00:12 | -19.20526 | -44.51273 | 13356 ft | 339 kts | 127° |
| 2026-05-06 00:12 | -19.21943 | -44.49298 | 12861 ft | 336 kts | 127° |
| 2026-05-06 00:13 | -19.23349 | -44.47337 | 12356 ft | 333 kts | 127° |
| 2026-05-06 00:13 | -19.24742 | -44.45395 | 11863 ft | 330 kts | 127° |
| 2026-05-06 00:13 | -19.26128 | -44.43461 | 11367 ft | 328 kts | 127° |
| 2026-05-06 00:13 | -19.27500 | -44.41546 | 10883 ft | 326 kts | 127° |
| 2026-05-06 00:14 | -19.28863 | -44.39644 | 10447 ft | 322 kts | 127° |
| 2026-05-06 00:14 | -19.30193 | -44.37786 | 10261 ft | 310 kts | 127° |
| 2026-05-06 00:14 | -19.31447 | -44.36004 | 10177 ft | 295 kts | 123° |
| 2026-05-06 00:14 | -19.32421 | -44.34137 | 9995 ft | 284 kts | 113° |
| 2026-05-06 00:15 | -19.33099 | -44.32151 | 9829 ft | 291 kts | 108° |
| 2026-05-06 00:15 | -19.33749 | -44.30131 | 9457 ft | 295 kts | 109° |
| 2026-05-06 00:15 | -19.34420 | -44.28081 | 9088 ft | 293 kts | 109° |
| 2026-05-06 00:15 | -19.35079 | -44.26080 | 8938 ft | 282 kts | 109° |
| 2026-05-06 00:16 | -19.35698 | -44.24204 | 8832 ft | 269 kts | 109° |
| 2026-05-06 00:16 | -19.36331 | -44.22388 | 8735 ft | 257 kts | 115° |
| 2026-05-06 00:16 | -19.37276 | -44.20844 | 8641 ft | 245 kts | 131° |
| 2026-05-06 00:16 | -19.38508 | -44.19655 | 8557 ft | 234 kts | 140° |
| 2026-05-06 00:17 | -19.39734 | -44.18583 | 8454 ft | 225 kts | 139° |
| 2026-05-06 00:17 | -19.40924 | -44.17526 | 8214 ft | 222 kts | 139° |
| 2026-05-06 00:17 | -19.42104 | -44.16471 | 7949 ft | 221 kts | 139° |
| 2026-05-06 00:17 | -19.43278 | -44.15422 | 7695 ft | 222 kts | 139° |
| 2026-05-06 00:18 | -19.44468 | -44.14348 | 7250 ft | 226 kts | 138° |
| 2026-05-06 00:18 | -19.45612 | -44.13293 | 6910 ft | 207 kts | 137° |
| 2026-05-06 00:18 | -19.46661 | -44.12317 | 6450 ft | 195 kts | 137° |
| 2026-05-06 00:18 | -19.47663 | -44.11388 | 5958 ft | 188 kts | 137° |
| 2026-05-06 00:19 | -19.48634 | -44.10489 | 5480 ft | 183 kts | 137° |
| 2026-05-06 00:19 | -19.49581 | -44.09616 | 5085 ft | 176 kts | 136° |
| 2026-05-06 00:19 | -19.50458 | -44.08806 | 4903 ft | 159 kts | 136° |
| 2026-05-06 00:19 | -19.51259 | -44.08070 | 4713 ft | 146 kts | 136° |
| 2026-05-06 00:20 | -19.52003 | -44.07384 | 4534 ft | 141 kts | 136° |
| 2026-05-06 00:20 | -19.52744 | -44.06695 | 4361 ft | 141 kts | 136° |
| 2026-05-06 00:20 | -19.53470 | -44.06023 | 4238 ft | 133 kts | 136° |
| 2026-05-06 00:20 | -19.54159 | -44.05389 | 4066 ft | 130 kts | 136° |
| 2026-05-06 00:21 | -19.54840 | -44.04761 | 3895 ft | 129 kts | 136° |
| 2026-05-06 00:21 | -19.55518 | -44.04136 | 3817 ft | 129 kts | 136° |
| 2026-05-06 00:21 | -19.56195 | -44.03512 | 3880 ft | 130 kts | 136° |
| 2026-05-06 00:21 | -19.56876 | -44.02883 | 3949 ft | 130 kts | 136° |
| 2026-05-06 00:22 | -19.57562 | -44.02249 | 3959 ft | 131 kts | 136° |
| 2026-05-06 00:22 | -19.58249 | -44.01617 | 3823 ft | 130 kts | 136° |
| 2026-05-06 00:22 | -19.58932 | -44.00985 | 3631 ft | 130 kts | 136° |
| 2026-05-06 00:22 | -19.59614 | -44.00353 | 3468 ft | 130 kts | 137° |
| 2026-05-06 00:23 | -19.60300 | -43.99716 | 3300 ft | 132 kts | 137° |
| 2026-05-06 00:23 | -19.60993 | -43.99076 | 3112 ft | 131 kts | 137° |
| 2026-05-06 00:23 | -19.61670 | -43.98449 | 2938 ft | 130 kts | 138° |
| 2026-05-06 00:23 | -19.62349 | -43.97822 | 2902 ft | 130 kts | 138° |
| 2026-05-06 00:24 | -19.63037 | -43.97188 | 2818 ft | 130 kts | 138° |
| 2026-05-06 00:24 | -19.63633 | -43.96624 | 2811 ft | 78 kts | 139° |
| 2026-05-06 00:24 | -19.63826 | -43.96444 | 2811 ft | 55 kts | 138° |
| 2026-05-06 00:24 | -19.64043 | -43.96244 | 2810 ft | 7 kts | 138° |
| 2026-05-06 00:25 | -19.64126 | -43.96164 | 2809 ft | 26 kts | 138° |
| 2026-05-06 00:25 | -19.64274 | -43.96039 | 2808 ft | 28 kts | 143° |
| 2026-05-06 00:25 | -19.64434 | -43.95899 | 2807 ft | 34 kts | 139° |
| 2026-05-06 00:25 | -19.64663 | -43.95685 | 2809 ft | 46 kts | 137° |
| 2026-05-06 00:26 | -19.64759 | -43.95533 | 2810 ft | 20 kts | 78° |
| 2026-05-06 00:26 | -19.64738 | -43.95444 | 2812 ft | 12 kts | 50° |
| 2026-05-06 00:26 | -19.64732 | -43.95436 | 2810 ft | 0 kts | 50° |
| 2026-05-06 00:27 | -19.64720 | -43.95428 | 2808 ft | 10 kts | 22° |
| 2026-05-06 00:28 | -19.64635 | -43.95484 | 2812 ft | 19 kts | 329° |
| 2026-05-06 00:28 | -19.64500 | -43.95607 | 2807 ft | 32 kts | 319° |
| 2026-05-06 00:28 | -19.64395 | -43.95698 | 2809 ft | 7 kts | 336° |
| 2026-05-06 00:28 | -19.64301 | -43.95781 | 2809 ft | 26 kts | 326° |
| 2026-05-06 00:29 | -19.64131 | -43.95946 | 2809 ft | 36 kts | 319° |
| 2026-05-06 00:29 | -19.63929 | -43.96135 | 2810 ft | 39 kts | 319° |
| 2026-05-06 00:29 | -19.63740 | -43.96309 | 2810 ft | 23 kts | 319° |
| 2026-05-06 00:29 | -19.63622 | -43.96363 | 2814 ft | 14 kts | 32° |
| 2026-05-06 00:30 | -19.63495 | -43.96296 | 2811 ft | 20 kts | 20° |
| 2026-05-06 00:30 | -19.63422 | -43.96368 | 2809 ft | 21 kts | 290° |
| 2026-05-06 00:30 | -19.63330 | -43.96486 | 2809 ft | 27 kts | 322° |
| 2026-05-06 00:30 | -19.63208 | -43.96599 | 2809 ft | 8 kts | 318° |
| 2026-05-06 00:31 | -19.63103 | -43.96669 | 2809 ft | 25 kts | 322° |
| 2026-05-06 00:31 | -19.63050 | -43.96705 | 2810 ft | 4 kts | 359° |
| 2026-05-06 00:31 | -19.63017 | -43.96665 | 2809 ft | 2 kts | 47° |
| 2026-05-06 00:31 | -19.63008 | -43.96656 | 2809 ft | 0 kts | 48° |
| 2026-05-06 00:32 | -19.63008 | -43.96655 | 2813 ft | 0 kts | 50° |